sensor_id;sensor_type;location;lat;lon;timestamp;pressure;altitude;pressure_sealevel;temperature;humidity
38558;BME280;24333;42.626;23.308;2022-12-17T00:00:47;92014.13;;;15.23;65.55
38558;BME280;24333;42.626;23.308;2022-12-17T00:03:32;92016.16;;;15.19;65.90
38558;BME280;24333;42.626;23.308;2022-12-17T00:06:17;92027.31;;;15.39;65.63
38558;BME280;24333;42.626;23.308;2022-12-17T00:09:02;92020.72;;;15.33;65.71
38558;BME280;24333;42.626;23.308;2022-12-17T00:11:46;92023.47;;;15.29;65.87
38558;BME280;24333;42.626;23.308;2022-12-17T00:14:30;92008.53;;;15.34;64.62
38558;BME280;24333;42.626;23.308;2022-12-17T00:17:14;92016.84;;;15.27;64.82
38558;BME280;24333;42.626;23.308;2022-12-17T00:19:58;92023.59;;;15.18;65.98
38558;BME280;24333;42.626;23.308;2022-12-17T00:22:42;92014.13;;;15.23;65.72
38558;BME280;24333;42.626;23.308;2022-12-17T00:25:27;92030.22;;;15.25;66.58
38558;BME280;24333;42.626;23.308;2022-12-17T00:28:12;92013.13;;;15.06;67.25
38558;BME280;24333;42.626;23.308;2022-12-17T00:30:56;92006.13;;;15.01;66.97
38558;BME280;24333;42.626;23.308;2022-12-17T00:33:40;92019.59;;;15.27;64.65
38558;BME280;24333;42.626;23.308;2022-12-17T00:36:25;91995.81;;;15.13;64.76
38558;BME280;24333;42.626;23.308;2022-12-17T00:39:09;92016.53;;;15.21;65.67
38558;BME280;24333;42.626;23.308;2022-12-17T00:41:56;92005.19;;;15.15;66.09
38558;BME280;24333;42.626;23.308;2022-12-17T00:44:40;92006.47;;;15.07;66.43
38558;BME280;24333;42.626;23.308;2022-12-17T00:47:24;91992.72;;;15.11;64.24
38558;BME280;24333;42.626;23.308;2022-12-17T00:50:08;91986.44;;;15.10;64.44
38558;BME280;24333;42.626;23.308;2022-12-17T00:52:53;91984.56;;;15.03;62.80
38558;BME280;24333;42.626;23.308;2022-12-17T00:55:37;91975.41;;;15.14;64.17
38558;BME280;24333;42.626;23.308;2022-12-17T00:58:21;91983.66;;;15.14;64.27
38558;BME280;24333;42.626;23.308;2022-12-17T01:01:06;91974.31;;;15.08;64.42
38558;BME280;24333;42.626;23.308;2022-12-17T01:03:51;91983.09;;;15.26;64.45
38558;BME280;24333;42.626;23.308;2022-12-17T01:06:35;91972.41;;;15.01;64.60
38558;BME280;24333;42.626;23.308;2022-12-17T01:09:22;91982.19;;;15.06;65.02
38558;BME280;24333;42.626;23.308;2022-12-17T01:12:26;91988.16;;;14.93;64.79
38558;BME280;24333;42.626;23.308;2022-12-17T01:15:11;91995.84;;;15.09;64.69
38558;BME280;24333;42.626;23.308;2022-12-17T01:17:56;91977.06;;;15.08;64.63
38558;BME280;24333;42.626;23.308;2022-12-17T01:20:40;91996.19;;;15.15;64.01
38558;BME280;24333;42.626;23.308;2022-12-17T01:23:27;91998.50;;;15.20;64.84
38558;BME280;24333;42.626;23.308;2022-12-17T01:26:11;92009.38;;;15.27;64.61
38558;BME280;24333;42.626;23.308;2022-12-17T01:28:56;91994.56;;;15.17;63.57
38558;BME280;24333;42.626;23.308;2022-12-17T01:31:42;92002.41;;;15.19;62.74
38558;BME280;24333;42.626;23.308;2022-12-17T01:34:26;92000.41;;;15.23;62.74
38558;BME280;24333;42.626;23.308;2022-12-17T01:37:14;92017.22;;;15.29;62.83
38558;BME280;24333;42.626;23.308;2022-12-17T01:39:58;92009.97;;;15.46;61.61
38558;BME280;24333;42.626;23.308;2022-12-17T01:42:44;91984.56;;;15.35;61.65
38558;BME280;24333;42.626;23.308;2022-12-17T02:04:45;91995.66;;;15.27;63.03
38558;BME280;24333;42.626;23.308;2022-12-17T02:36:15;91948.34;;;15.12;62.98
38558;BME280;24333;42.626;23.308;2022-12-17T02:38:59;91962.41;;;15.18;62.82
38558;BME280;24333;42.626;23.308;2022-12-17T02:41:47;91981.09;;;15.30;62.61
38558;BME280;24333;42.626;23.308;2022-12-17T02:44:33;91955.00;;;15.15;62.66
38558;BME280;24333;42.626;23.308;2022-12-17T02:47:22;91965.13;;;15.22;62.35
38558;BME280;24333;42.626;23.308;2022-12-17T02:50:08;91986.22;;;15.28;62.38
38558;BME280;24333;42.626;23.308;2022-12-17T02:52:53;91960.84;;;15.21;62.83
38558;BME280;24333;42.626;23.308;2022-12-17T02:55:38;91950.34;;;15.12;62.71
38558;BME280;24333;42.626;23.308;2022-12-17T02:58:22;91942.00;;;15.19;63.30
38558;BME280;24333;42.626;23.308;2022-12-17T03:01:06;91924.84;;;15.11;62.89
38558;BME280;24333;42.626;23.308;2022-12-17T03:03:51;91937.88;;;15.35;62.74
38558;BME280;24333;42.626;23.308;2022-12-17T03:06:35;91936.44;;;15.26;62.32
38558;BME280;24333;42.626;23.308;2022-12-17T03:09:19;91938.56;;;15.42;61.95
38558;BME280;24333;42.626;23.308;2022-12-17T03:12:04;91930.47;;;15.31;60.98
38558;BME280;24333;42.626;23.308;2022-12-17T03:14:48;91937.25;;;15.54;61.26
38558;BME280;24333;42.626;23.308;2022-12-17T03:17:32;91914.28;;;15.41;60.18
38558;BME280;24333;42.626;23.308;2022-12-17T03:20:19;91926.75;;;15.45;60.87
38558;BME280;24333;42.626;23.308;2022-12-17T03:23:05;91928.31;;;15.46;61.20
38558;BME280;24333;42.626;23.308;2022-12-17T03:25:50;91911.47;;;15.44;60.03
38558;BME280;24333;42.626;23.308;2022-12-17T03:28:37;91901.16;;;15.25;61.71
38558;BME280;24333;42.626;23.308;2022-12-17T03:31:22;91908.78;;;15.41;60.77
38558;BME280;24333;42.626;23.308;2022-12-17T03:34:06;91921.69;;;15.44;60.31
38558;BME280;24333;42.626;23.308;2022-12-17T03:36:51;91895.13;;;15.33;61.00
38558;BME280;24333;42.626;23.308;2022-12-17T03:39:39;91881.88;;;15.28;61.05
38558;BME280;24333;42.626;23.308;2022-12-17T03:42:24;91912.72;;;15.40;59.93
38558;BME280;24333;42.626;23.308;2022-12-17T03:45:08;91876.59;;;15.41;58.97
38558;BME280;24333;42.626;23.308;2022-12-17T03:48:08;91926.31;;;15.51;59.16
38558;BME280;24333;42.626;23.308;2022-12-17T03:50:54;91913.28;;;15.55;58.20
38558;BME280;24333;42.626;23.308;2022-12-17T03:53:38;91902.84;;;15.73;58.57
38558;BME280;24333;42.626;23.308;2022-12-17T03:56:23;91894.19;;;15.75;57.78
38558;BME280;24333;42.626;23.308;2022-12-17T03:59:07;91897.09;;;15.64;58.59
38558;BME280;24333;42.626;23.308;2022-12-17T04:01:52;91909.69;;;15.61;57.67
38558;BME280;24333;42.626;23.308;2022-12-17T04:04:36;91898.22;;;15.67;57.99
38558;BME280;24333;42.626;23.308;2022-12-17T04:07:20;91894.84;;;15.55;58.95
38558;BME280;24333;42.626;23.308;2022-12-17T04:10:05;91893.06;;;15.41;59.77
38558;BME280;24333;42.626;23.308;2022-12-17T04:12:49;91929.34;;;15.29;60.61
38558;BME280;24333;42.626;23.308;2022-12-17T04:15:33;91919.00;;;14.67;67.70
38558;BME280;24333;42.626;23.308;2022-12-17T04:18:17;91928.47;;;14.21;74.00
38558;BME280;24333;42.626;23.308;2022-12-17T04:21:01;91919.19;;;14.07;70.52
38558;BME280;24333;42.626;23.308;2022-12-17T04:23:45;91919.09;;;14.18;69.93
38558;BME280;24333;42.626;23.308;2022-12-17T04:26:29;91919.09;;;14.60;67.42
38558;BME280;24333;42.626;23.308;2022-12-17T04:29:13;91911.84;;;14.81;65.13
38558;BME280;24333;42.626;23.308;2022-12-17T04:31:57;91900.69;;;14.95;64.04
38558;BME280;24333;42.626;23.308;2022-12-17T04:34:41;91919.47;;;15.00;63.50
38558;BME280;24333;42.626;23.308;2022-12-17T05:57:28;91941.69;;;12.95;91.82
38558;BME280;24333;42.626;23.308;2022-12-17T06:00:15;91997.84;;;13.47;88.85
38558;BME280;24333;42.626;23.308;2022-12-17T06:03:01;91989.47;;;13.76;85.33
38558;BME280;24333;42.626;23.308;2022-12-17T06:05:47;91955.06;;;13.71;83.23
38558;BME280;24333;42.626;23.308;2022-12-17T06:08:49;91979.19;;;13.91;82.34
38558;BME280;24333;42.626;23.308;2022-12-17T06:24:34;92034.56;;;13.64;90.04
38558;BME280;24333;42.626;23.308;2022-12-17T06:27:29;92027.75;;;12.68;100.00
38558;BME280;24333;42.626;23.308;2022-12-17T06:30:15;92023.00;;;11.82;100.00
38558;BME280;24333;42.626;23.308;2022-12-17T06:33:08;92027.53;;;11.31;100.00
38558;BME280;24333;42.626;23.308;2022-12-17T06:35:53;92051.06;;;10.83;100.00
38558;BME280;24333;42.626;23.308;2022-12-17T06:38:38;92057.28;;;10.83;100.00
38558;BME280;24333;42.626;23.308;2022-12-17T06:41:22;92042.00;;;10.68;100.00
38558;BME280;24333;42.626;23.308;2022-12-17T06:44:06;92035.75;;;10.67;100.00
38558;BME280;24333;42.626;23.308;2022-12-17T06:46:53;92045.94;;;10.78;100.00
38558;BME280;24333;42.626;23.308;2022-12-17T06:49:55;92033.84;;;10.72;100.00
38558;BME280;24333;42.626;23.308;2022-12-17T06:52:38;92026.03;;;10.66;100.00
38558;BME280;24333;42.626;23.308;2022-12-17T06:55:23;92056.94;;;10.85;100.00
38558;BME280;24333;42.626;23.308;2022-12-17T06:58:07;92052.25;;;10.85;100.00
38558;BME280;24333;42.626;23.308;2022-12-17T07:00:52;92047.44;;;11.35;100.00
38558;BME280;24333;42.626;23.308;2022-12-17T07:03:38;92056.13;;;11.73;100.00
38558;BME280;24333;42.626;23.308;2022-12-17T07:06:23;92105.59;;;11.50;100.00
38558;BME280;24333;42.626;23.308;2022-12-17T07:09:09;92149.50;;;11.19;100.00
38558;BME280;24333;42.626;23.308;2022-12-17T07:11:56;92166.03;;;10.89;100.00
38558;BME280;24333;42.626;23.308;2022-12-17T10:01:21;92308.84;;;11.07;100.00
38558;BME280;24333;42.626;23.308;2022-12-17T10:04:18;92225.16;;;10.39;100.00
38558;BME280;24333;42.626;23.308;2022-12-17T10:07:14;92196.66;;;10.33;100.00
38558;BME280;24333;42.626;23.308;2022-12-17T10:10:05;92186.03;;;10.21;100.00
38558;BME280;24333;42.626;23.308;2022-12-17T10:12:56;92213.00;;;10.30;100.00
38558;BME280;24333;42.626;23.308;2022-12-17T10:15:41;92226.16;;;10.24;100.00
38558;BME280;24333;42.626;23.308;2022-12-17T10:18:26;92261.19;;;10.22;100.00
38558;BME280;24333;42.626;23.308;2022-12-17T10:21:29;92266.22;;;9.89;100.00
38558;BME280;24333;42.626;23.308;2022-12-17T10:24:28;92308.28;;;9.65;100.00
